createdAt,value
2024-04-30T00:00:20.479Z,16.71
2024-04-30T00:02:50.379Z,16.71
2024-04-30T00:05:20.391Z,16.82
2024-04-30T00:07:50.476Z,16.56
2024-04-30T00:10:20.248Z,16.43
2024-04-30T00:12:50.116Z,16.43
2024-04-30T00:15:19.720Z,16.44
2024-04-30T00:17:49.662Z,16.44
2024-04-30T00:20:19.314Z,16.43
2024-04-30T00:22:49.221Z,16.54
2024-04-30T00:25:18.821Z,16.38
2024-04-30T00:27:50.005Z,16.37
2024-04-30T00:30:21.167Z,16.38
2024-04-30T00:32:51.926Z,16.41
2024-04-30T00:35:24.742Z,16.34
2024-04-30T00:37:54.713Z,16.22
2024-04-30T00:40:24.692Z,16.10
2024-04-30T00:42:54.264Z,16.27
2024-04-30T00:45:24.120Z,16.15
2024-04-30T00:47:54.296Z,16.17
2024-04-30T00:50:24.888Z,16.16
2024-04-30T00:52:55.491Z,15.89
2024-04-30T00:55:25.408Z,15.93
2024-04-30T00:57:55.528Z,15.92
2024-04-30T01:00:25.847Z,16.06
2024-04-30T01:02:56.286Z,15.88
2024-04-30T01:05:26.212Z,15.97
2024-04-30T01:07:56.410Z,15.92
2024-04-30T01:10:27.124Z,15.73
2024-04-30T01:12:59.968Z,15.78
2024-04-30T01:15:29.898Z,15.91
2024-04-30T01:17:59.855Z,15.78
2024-04-30T01:20:29.883Z,15.82
2024-04-30T01:22:59.975Z,15.89
2024-04-30T01:25:29.698Z,15.61
2024-04-30T01:27:59.566Z,15.66
2024-04-30T01:30:29.147Z,15.45
2024-04-30T01:33:00.614Z,15.58
2024-04-30T01:35:30.510Z,15.60
2024-04-30T01:38:00.884Z,15.39
2024-04-30T01:40:30.653Z,15.36
2024-04-30T01:43:00.702Z,15.47
2024-04-30T01:45:30.663Z,15.62
2024-04-30T01:48:03.160Z,15.59
2024-04-30T01:50:33.086Z,15.58
2024-04-30T01:53:03.079Z,15.58
2024-04-30T01:55:33.265Z,15.54
2024-04-30T01:58:03.358Z,15.54
2024-04-30T02:00:33.402Z,15.80
2024-04-30T02:03:03.393Z,15.31
2024-04-30T02:05:33.504Z,15.39
2024-04-30T02:08:03.875Z,15.40
2024-04-30T02:10:33.854Z,15.37
2024-04-30T02:13:05.486Z,15.38
2024-04-30T02:15:35.610Z,15.30
2024-04-30T02:18:06.958Z,15.22
2024-04-30T02:20:36.968Z,15.24
2024-04-30T02:23:06.857Z,15.15
2024-04-30T02:25:37.823Z,15.21
2024-04-30T02:28:09.395Z,15.23
2024-04-30T02:30:56.854Z,15.22
2024-04-30T02:33:44.455Z,15.39
2024-04-30T02:36:14.582Z,15.47
2024-04-30T02:38:44.456Z,15.39
2024-04-30T02:41:14.567Z,15.34
2024-04-30T02:43:44.468Z,15.26
2024-04-30T02:46:14.408Z,15.32
2024-04-30T02:48:44.214Z,15.22
2024-04-30T02:51:14.192Z,15.33
2024-04-30T02:53:44.189Z,15.36
2024-04-30T02:56:15.089Z,15.31
2024-04-30T02:58:45.034Z,15.26
2024-04-30T03:01:15.685Z,15.29
2024-04-30T03:03:47.466Z,15.26
2024-04-30T03:06:17.420Z,15.48
2024-04-30T03:08:47.352Z,15.48
2024-04-30T03:11:17.271Z,15.51
2024-04-30T03:13:47.280Z,15.40
2024-04-30T03:16:17.188Z,15.37
2024-04-30T03:18:47.381Z,15.41
2024-04-30T03:21:17.302Z,15.35
2024-04-30T03:23:47.172Z,15.40
2024-04-30T03:26:17.032Z,15.31
2024-04-30T03:28:46.952Z,15.32
2024-04-30T03:31:18.563Z,15.24
2024-04-30T03:33:48.412Z,15.25
2024-04-30T03:36:19.754Z,15.11
2024-04-30T03:38:49.887Z,15.23
2024-04-30T03:41:19.806Z,15.31
2024-04-30T03:43:49.994Z,15.15
2024-04-30T03:46:19.948Z,15.37
2024-04-30T03:48:49.861Z,15.19
2024-04-30T03:51:20.540Z,15.26
2024-04-30T03:53:50.491Z,15.15
2024-04-30T03:56:20.146Z,15.10
2024-04-30T03:58:50.052Z,15.32
2024-04-30T04:01:20.308Z,15.32
2024-04-30T04:03:50.239Z,15.29
2024-04-30T04:06:19.954Z,15.42
2024-04-30T04:08:49.902Z,15.41
2024-04-30T04:11:37.567Z,15.33
2024-04-30T04:14:26.836Z,15.30
2024-04-30T04:16:56.590Z,15.20
2024-04-30T04:19:27.395Z,15.12
2024-04-30T04:21:57.542Z,15.28
2024-04-30T04:24:27.783Z,15.18
2024-04-30T04:26:57.417Z,15.23
2024-04-30T04:29:27.287Z,15.25
2024-04-30T04:31:58.954Z,15.34
2024-04-30T04:34:29.071Z,15.46
2024-04-30T04:36:58.911Z,15.40
2024-04-30T04:39:28.572Z,15.58
2024-04-30T04:41:58.489Z,15.40
2024-04-30T04:44:28.657Z,15.50
2024-04-30T04:46:58.563Z,15.45
2024-04-30T04:49:28.695Z,15.54
2024-04-30T04:51:58.847Z,15.49
2024-04-30T04:54:28.703Z,15.20
2024-04-30T04:56:58.606Z,15.28
2024-04-30T04:59:28.540Z,15.40
2024-04-30T05:01:58.506Z,15.37
2024-04-30T05:04:28.807Z,15.21
2024-04-30T05:07:01.072Z,15.61
2024-04-30T05:09:30.383Z,15.61
2024-04-30T05:12:00.268Z,15.60
2024-04-30T05:14:30.311Z,15.49
2024-04-30T05:17:00.329Z,15.50
2024-04-30T05:19:30.548Z,15.45
2024-04-30T05:22:00.832Z,15.51
2024-04-30T05:24:30.839Z,15.33
2024-04-30T05:27:00.798Z,15.47
2024-04-30T05:29:32.014Z,15.50
2024-04-30T05:32:02.291Z,15.66
2024-04-30T05:34:32.328Z,15.57
2024-04-30T05:37:02.396Z,15.57
2024-04-30T05:39:32.359Z,15.50
2024-04-30T05:42:04.020Z,15.52
2024-04-30T05:44:34.268Z,15.55
2024-04-30T05:47:04.215Z,15.57
2024-04-30T05:49:34.659Z,15.63
2024-04-30T05:52:05.081Z,15.32
2024-04-30T05:54:35.306Z,15.32
2024-04-30T05:57:05.574Z,15.46
2024-04-30T05:59:35.483Z,15.17
2024-04-30T06:02:05.586Z,15.37
2024-04-30T06:04:35.870Z,15.33
2024-04-30T06:07:06.134Z,15.51
2024-04-30T06:09:37.220Z,15.62
2024-04-30T06:12:09.046Z,15.73
2024-04-30T06:14:39.520Z,15.60
2024-04-30T06:17:10.427Z,15.82
2024-04-30T06:19:40.814Z,15.75
2024-04-30T06:22:11.625Z,15.76
2024-04-30T06:24:42.153Z,15.55
2024-04-30T06:27:13.938Z,15.66
2024-04-30T06:29:44.187Z,15.74
2024-04-30T06:32:17.021Z,15.58
2024-04-30T06:34:47.247Z,15.84
2024-04-30T06:37:17.444Z,15.84
2024-04-30T06:39:52.314Z,15.98
2024-04-30T06:42:22.220Z,16.04
2024-04-30T06:44:52.319Z,15.79
2024-04-30T06:47:31.284Z,16.10
2024-04-30T06:50:03.059Z,16.20
2024-04-30T06:52:35.021Z,16.29
2024-04-30T06:55:05.574Z,16.48
2024-04-30T06:57:35.690Z,16.61
2024-04-30T07:00:11.466Z,16.82
2024-04-30T07:02:43.611Z,16.61
2024-04-30T07:05:13.086Z,16.91
2024-04-30T07:07:45.223Z,17.13
2024-04-30T07:10:15.204Z,17.27
2024-04-30T07:12:45.411Z,17.38
2024-04-30T07:15:15.270Z,17.27
2024-04-30T07:17:47.228Z,17.70
2024-04-30T07:20:17.277Z,17.70
2024-04-30T07:22:47.459Z,17.57
2024-04-30T07:25:19.050Z,17.86
2024-04-30T07:27:53.783Z,17.44
2024-04-30T07:30:23.718Z,17.57
2024-04-30T07:32:53.975Z,17.15
2024-04-30T07:35:23.997Z,16.95
2024-04-30T07:37:54.118Z,17.49
2024-04-30T07:40:23.893Z,17.75
2024-04-30T07:42:54.037Z,17.82
2024-04-30T07:45:23.926Z,18.12
2024-04-30T07:47:54.134Z,18.40
2024-04-30T07:50:24.129Z,18.40
2024-04-30T07:52:53.872Z,18.77
2024-04-30T07:55:23.586Z,18.96
2024-04-30T07:57:53.411Z,19.18
2024-04-30T08:00:23.245Z,19.52
2024-04-30T08:02:53.155Z,19.59
2024-04-30T08:05:24.007Z,19.73
2024-04-30T08:07:53.958Z,19.54
2024-04-30T08:10:23.589Z,19.87
2024-04-30T08:12:53.759Z,20.19
2024-04-30T08:15:25.519Z,19.57
2024-04-30T08:17:55.523Z,20.38
2024-04-30T08:20:27.082Z,20.33
2024-04-30T08:22:57.565Z,20.52
2024-04-30T08:25:27.478Z,20.79
2024-04-30T08:27:57.412Z,20.58
2024-04-30T08:30:27.792Z,20.83
2024-04-30T08:33:00.040Z,20.83
2024-04-30T08:35:29.911Z,20.98
2024-04-30T08:38:01.420Z,21.27
2024-04-30T08:40:31.336Z,21.28
2024-04-30T08:43:01.405Z,21.13
2024-04-30T08:45:33.510Z,21.11
2024-04-30T08:48:06.086Z,21.09
2024-04-30T08:50:38.436Z,21.89
2024-04-30T08:53:10.546Z,22.28
2024-04-30T08:55:43.014Z,21.75
2024-04-30T08:58:13.180Z,22.02
2024-04-30T09:00:44.847Z,21.67
2024-04-30T09:03:15.849Z,21.67
2024-04-30T09:05:46.674Z,21.55
2024-04-30T09:08:17.072Z,21.10
2024-04-30T09:10:48.085Z,21.43
2024-04-30T09:13:19.780Z,21.24
2024-04-30T09:16:01.993Z,20.98
2024-04-30T09:18:33.438Z,21.04
2024-04-30T09:21:16.172Z,21.08
2024-04-30T09:23:35.691Z,21.03
2024-04-30T09:26:08.442Z,21.30
2024-04-30T09:28:38.501Z,21.48
2024-04-30T09:31:10.062Z,21.37
2024-04-30T09:33:40.232Z,21.66
2024-04-30T09:36:13.600Z,21.12
2024-04-30T09:38:44.726Z,20.88
2024-04-30T09:41:15.151Z,21.46
2024-04-30T09:43:45.410Z,21.46
2024-04-30T09:46:17.988Z,21.94
2024-04-30T09:48:50.005Z,22.15
2024-04-30T09:51:22.567Z,22.48
2024-04-30T09:53:55.374Z,22.85
2024-04-30T09:56:26.759Z,23.15
2024-04-30T09:58:57.231Z,23.97
2024-04-30T10:01:30.191Z,24.17
2024-04-30T10:04:02.965Z,23.86
2024-04-30T10:06:33.622Z,23.85
2024-04-30T10:09:04.451Z,23.82
2024-04-30T10:11:34.480Z,24.12
2024-04-30T10:14:04.399Z,24.34
2024-04-30T10:16:34.398Z,24.22
2024-04-30T10:19:05.780Z,24.90
2024-04-30T10:21:36.922Z,24.39
2024-04-30T10:24:24.037Z,24.48
2024-04-30T10:26:53.969Z,24.48
2024-04-30T10:29:24.128Z,24.89
2024-04-30T10:31:57.088Z,24.89
2024-04-30T10:34:25.714Z,24.89
2024-04-30T10:36:55.426Z,25.00
2024-04-30T10:39:26.814Z,25.00
2024-04-30T10:41:56.994Z,25.05
2024-04-30T10:44:26.800Z,25.14
2024-04-30T10:46:59.397Z,25.61
2024-04-30T10:49:29.507Z,25.61
2024-04-30T10:51:59.495Z,25.64
2024-04-30T10:54:30.338Z,25.94
2024-04-30T10:57:00.447Z,25.68
2024-04-30T10:59:30.792Z,25.69
2024-04-30T11:02:01.002Z,25.53
2024-04-30T11:04:32.436Z,26.13
2024-04-30T11:07:03.175Z,25.76
2024-04-30T11:09:40.809Z,25.76
2024-04-30T11:12:11.811Z,25.83
2024-04-30T11:14:45.714Z,25.83
2024-04-30T11:17:20.422Z,25.92
2024-04-30T11:19:50.166Z,25.92
2024-04-30T11:22:21.410Z,25.68
2024-04-30T11:24:51.476Z,25.51
2024-04-30T11:27:21.387Z,25.66
2024-04-30T11:29:51.318Z,25.78
2024-04-30T11:32:21.127Z,25.86
2024-04-30T11:34:53.029Z,26.39
2024-04-30T11:37:23.078Z,26.89
2024-04-30T11:39:53.093Z,26.89
2024-04-30T11:42:30.570Z,27.04
2024-04-30T11:44:56.296Z,26.74
2024-04-30T11:47:26.328Z,27.03
2024-04-30T11:49:56.327Z,26.83
2024-04-30T11:52:26.218Z,27.08
2024-04-30T11:54:56.098Z,26.69
2024-04-30T11:57:26.001Z,26.43
2024-04-30T11:59:58.654Z,26.59
2024-04-30T12:02:28.590Z,27.23
2024-04-30T12:04:58.651Z,27.11
2024-04-30T12:07:28.734Z,27.20
2024-04-30T12:10:00.322Z,27.40
2024-04-30T12:12:30.012Z,27.42
2024-04-30T12:14:59.862Z,27.23
2024-04-30T12:17:29.892Z,27.25
2024-04-30T12:19:59.942Z,27.31
2024-04-30T12:22:30.103Z,27.63
2024-04-30T12:25:00.496Z,28.10
2024-04-30T12:27:30.404Z,28.11
2024-04-30T12:30:00.073Z,27.96
2024-04-30T12:32:30.125Z,28.08
2024-04-30T12:34:59.984Z,28.23
2024-04-30T12:37:30.231Z,28.28
2024-04-30T12:40:00.855Z,28.18
2024-04-30T12:42:31.583Z,27.73
2024-04-30T12:45:01.533Z,28.21
2024-04-30T12:47:31.501Z,28.49
2024-04-30T12:50:01.599Z,28.49
2024-04-30T12:52:31.587Z,27.80
2024-04-30T12:55:01.512Z,27.06
2024-04-30T12:57:31.509Z,27.06
2024-04-30T13:00:01.474Z,27.55
2024-04-30T13:02:31.180Z,28.12
2024-04-30T13:05:01.433Z,28.73
2024-04-30T13:07:32.380Z,28.16
2024-04-30T13:10:02.332Z,28.29
2024-04-30T13:12:33.200Z,28.39
2024-04-30T13:15:03.383Z,27.91
2024-04-30T13:17:33.584Z,28.46
2024-04-30T13:20:03.518Z,28.56
2024-04-30T13:22:33.581Z,28.23
2024-04-30T13:25:03.861Z,28.38
2024-04-30T13:27:34.704Z,28.46
2024-04-30T13:30:05.809Z,28.44
2024-04-30T13:32:36.194Z,28.52
2024-04-30T13:35:07.758Z,28.74
2024-04-30T13:37:39.791Z,28.78
2024-04-30T13:40:11.182Z,28.56
2024-04-30T13:42:41.048Z,28.48
2024-04-30T13:45:10.990Z,28.45
2024-04-30T13:47:40.833Z,27.79
2024-04-30T13:50:11.822Z,27.67
2024-04-30T13:52:42.374Z,26.90
2024-04-30T13:55:12.301Z,26.93
2024-04-30T13:57:44.829Z,27.14
2024-04-30T14:00:15.867Z,27.48
2024-04-30T14:02:48.464Z,28.28
2024-04-30T14:05:19.073Z,28.81
2024-04-30T14:07:48.963Z,29.55
2024-04-30T14:10:19.537Z,28.79
2024-04-30T14:12:49.683Z,27.57
2024-04-30T14:15:19.352Z,28.33
2024-04-30T14:17:49.620Z,28.02
2024-04-30T14:20:19.313Z,27.81
2024-04-30T14:22:49.354Z,27.94
2024-04-30T14:25:19.536Z,27.99
2024-04-30T14:27:49.465Z,26.85
2024-04-30T14:30:19.060Z,26.85
2024-04-30T14:32:48.982Z,26.97
2024-04-30T14:35:19.303Z,26.83
2024-04-30T14:37:49.350Z,27.32
2024-04-30T14:40:19.440Z,27.69
2024-04-30T14:42:49.331Z,28.36
2024-04-30T14:45:18.949Z,28.55
2024-04-30T14:47:48.815Z,28.90
2024-04-30T14:50:18.914Z,29.23
2024-04-30T14:52:49.123Z,28.75
2024-04-30T14:55:18.779Z,29.17
2024-04-30T14:57:48.725Z,29.32
2024-04-30T15:00:18.843Z,28.83
2024-04-30T15:02:48.814Z,28.14
2024-04-30T15:05:18.782Z,28.34
2024-04-30T15:07:48.672Z,28.34
2024-04-30T15:10:18.413Z,28.63
2024-04-30T15:12:48.350Z,28.28
2024-04-30T15:15:18.269Z,28.51
2024-04-30T15:17:47.982Z,28.89
2024-04-30T15:20:17.946Z,28.55
2024-04-30T15:22:47.812Z,28.38
2024-04-30T15:25:17.779Z,28.30
2024-04-30T15:27:49.340Z,27.61
2024-04-30T15:30:19.256Z,28.16
2024-04-30T15:32:50.966Z,28.52
2024-04-30T15:35:22.222Z,29.31
2024-04-30T15:37:52.145Z,29.01
2024-04-30T15:40:22.017Z,29.47
2024-04-30T15:42:51.947Z,29.14
2024-04-30T15:45:21.788Z,29.09
2024-04-30T15:47:51.707Z,29.38
2024-04-30T15:50:21.549Z,29.18
2024-04-30T15:52:51.534Z,29.46
2024-04-30T15:55:22.185Z,28.58
2024-04-30T15:57:52.034Z,28.57
2024-04-30T16:00:21.693Z,28.57
2024-04-30T16:02:51.637Z,28.39
2024-04-30T16:05:22.859Z,28.14
2024-04-30T16:07:54.121Z,28.46
2024-04-30T16:10:24.646Z,28.52
2024-04-30T16:12:54.483Z,28.52
2024-04-30T16:15:24.389Z,28.41
2024-04-30T16:17:54.794Z,28.17
2024-04-30T16:20:25.039Z,28.65
2024-04-30T16:22:55.051Z,28.47
2024-04-30T16:25:24.640Z,28.81
2024-04-30T16:27:54.626Z,29.33
2024-04-30T16:30:24.530Z,28.71
2024-04-30T16:32:54.938Z,28.64
2024-04-30T16:35:24.789Z,28.67
2024-04-30T16:37:55.043Z,29.07
2024-04-30T16:40:24.891Z,28.71
2024-04-30T16:42:55.867Z,29.28
2024-04-30T16:45:25.676Z,29.27
2024-04-30T16:47:55.718Z,29.23
2024-04-30T16:50:25.791Z,29.76
2024-04-30T16:52:57.796Z,29.50
2024-04-30T16:55:29.231Z,29.77
2024-04-30T16:58:04.046Z,30.12
2024-04-30T17:00:34.295Z,29.55
2024-04-30T17:03:04.674Z,29.34
2024-04-30T17:05:35.127Z,29.38
2024-04-30T17:08:07.646Z,28.92
2024-04-30T17:10:39.358Z,29.13
2024-04-30T17:13:09.856Z,29.15
2024-04-30T17:15:41.482Z,28.96
2024-04-30T17:18:13.626Z,29.05
2024-04-30T17:20:44.616Z,29.46
2024-04-30T17:23:14.662Z,28.91
2024-04-30T17:25:44.646Z,28.96
2024-04-30T17:28:16.374Z,29.04
2024-04-30T17:30:46.368Z,29.13
2024-04-30T17:33:16.540Z,29.23
2024-04-30T17:35:46.467Z,28.63
2024-04-30T17:38:16.979Z,29.01
2024-04-30T17:40:46.907Z,28.88
2024-04-30T17:43:16.779Z,28.55
2024-04-30T17:45:46.742Z,28.60
2024-04-30T17:48:16.580Z,28.19
2024-04-30T17:50:46.647Z,27.71
2024-04-30T17:53:17.437Z,27.47
2024-04-30T17:55:47.837Z,27.19
2024-04-30T17:58:20.227Z,27.12
2024-04-30T18:00:49.489Z,26.77
2024-04-30T18:03:19.527Z,26.55
2024-04-30T18:05:51.101Z,26.49
2024-04-30T18:08:20.996Z,26.20
2024-04-30T18:10:54.170Z,25.72
2024-04-30T18:13:22.595Z,25.91
2024-04-30T18:15:52.550Z,25.91
2024-04-30T18:18:24.383Z,25.82
2024-04-30T18:20:54.405Z,25.48
2024-04-30T18:23:24.392Z,25.48
2024-04-30T18:25:54.680Z,25.64
2024-04-30T18:28:24.478Z,25.48
2024-04-30T18:30:54.794Z,25.51
2024-04-30T18:33:25.186Z,25.11
2024-04-30T18:35:55.225Z,24.98
2024-04-30T18:38:24.828Z,24.98
2024-04-30T18:40:55.674Z,25.02
2024-04-30T18:43:25.967Z,25.00
2024-04-30T18:45:56.107Z,24.74
2024-04-30T18:48:28.180Z,24.80
2024-04-30T18:50:58.346Z,24.63
2024-04-30T18:53:28.571Z,24.57
2024-04-30T18:55:59.860Z,24.43
2024-04-30T18:58:29.879Z,24.44
2024-04-30T19:01:01.177Z,24.39
2024-04-30T19:03:31.251Z,24.13
2024-04-30T19:06:01.873Z,23.95
2024-04-30T19:08:38.369Z,23.93
2024-04-30T19:11:09.549Z,23.96
2024-04-30T19:13:40.219Z,23.86
2024-04-30T19:16:11.170Z,23.70
2024-04-30T19:18:43.006Z,23.69
2024-04-30T19:21:13.799Z,23.68
2024-04-30T19:23:43.795Z,23.56
2024-04-30T19:26:19.796Z,23.47
2024-04-30T19:28:49.930Z,23.15
2024-04-30T19:31:21.631Z,22.83
2024-04-30T19:33:51.788Z,22.89
2024-04-30T19:36:23.622Z,22.89
2024-04-30T19:38:55.602Z,22.95
2024-04-30T19:41:26.297Z,22.86
2024-04-30T19:43:56.558Z,22.86
2024-04-30T19:46:26.860Z,22.74
2024-04-30T19:48:57.831Z,22.64
2024-04-30T19:51:28.262Z,22.54
2024-04-30T19:53:58.741Z,22.48
2024-04-30T19:56:28.790Z,22.42
2024-04-30T19:59:08.325Z,22.31
2024-04-30T20:01:40.878Z,22.25
2024-04-30T20:04:11.810Z,22.09
2024-04-30T20:06:45.249Z,22.08
2024-04-30T20:09:17.357Z,22.04
2024-04-30T20:11:47.538Z,21.98
2024-04-30T20:14:17.369Z,21.37
2024-04-30T20:16:47.484Z,21.37
2024-04-30T20:19:17.855Z,21.35
2024-04-30T20:21:53.462Z,21.26
2024-04-30T20:24:23.506Z,21.30
2024-04-30T20:26:55.837Z,21.13
2024-04-30T20:29:28.408Z,21.35
2024-04-30T20:31:58.877Z,21.48
2024-04-30T20:34:33.516Z,21.67
2024-04-30T20:37:04.061Z,21.66
2024-04-30T20:39:37.060Z,21.46
2024-04-30T20:42:13.511Z,21.28
2024-04-30T20:44:43.505Z,21.22
2024-04-30T20:47:20.988Z,21.15
2024-04-30T20:49:57.334Z,21.32
2024-04-30T20:52:27.547Z,21.30
2024-04-30T20:54:58.085Z,21.40
2024-04-30T20:57:28.056Z,21.42
2024-04-30T20:59:58.000Z,21.52
2024-04-30T21:02:28.292Z,21.48
2024-04-30T21:04:58.485Z,21.48
2024-04-30T21:07:28.967Z,21.64
2024-04-30T21:09:59.378Z,21.50
2024-04-30T21:12:29.844Z,21.44
2024-04-30T21:15:00.196Z,21.42
2024-04-30T21:17:30.474Z,21.52
2024-04-30T21:20:04.269Z,21.60
2024-04-30T21:22:34.467Z,21.47
2024-04-30T21:25:04.695Z,21.41
2024-04-30T21:27:34.723Z,21.48
2024-04-30T21:30:07.475Z,21.22
2024-04-30T21:32:37.947Z,21.13
2024-04-30T21:35:10.238Z,21.06
2024-04-30T21:37:46.983Z,21.22
2024-04-30T21:40:17.504Z,21.26
2024-04-30T21:42:47.659Z,21.22
2024-04-30T21:45:17.771Z,20.96
2024-04-30T21:47:48.298Z,20.98
2024-04-30T21:50:19.624Z,20.97
2024-04-30T21:52:49.664Z,20.98
2024-04-30T21:55:19.758Z,21.02
2024-04-30T21:57:51.656Z,20.99
2024-04-30T22:00:22.103Z,21.10
2024-04-30T22:02:57.464Z,20.94
2024-04-30T22:05:23.668Z,20.90
2024-04-30T22:07:54.097Z,20.79
2024-04-30T22:10:26.663Z,20.64
2024-04-30T22:12:59.557Z,20.77
2024-04-30T22:15:29.730Z,20.79
2024-04-30T22:18:00.332Z,20.57
2024-04-30T22:20:34.256Z,20.57
2024-04-30T22:23:04.920Z,20.73
2024-04-30T22:25:34.919Z,20.66
2024-04-30T22:28:06.618Z,20.69
2024-04-30T22:30:41.008Z,20.83
2024-04-30T22:33:11.419Z,20.75
2024-04-30T22:35:41.453Z,20.61
2024-04-30T22:38:11.623Z,20.72
2024-04-30T22:40:41.702Z,20.73
2024-04-30T22:43:11.531Z,20.77
2024-04-30T22:45:41.770Z,20.88
2024-04-30T22:48:12.202Z,20.88
2024-04-30T22:50:42.293Z,20.84
2024-04-30T22:53:12.379Z,20.66
2024-04-30T22:55:42.990Z,20.72
2024-04-30T22:58:13.435Z,20.79
2024-04-30T23:00:43.462Z,20.85
2024-04-30T23:03:13.970Z,20.76
2024-04-30T23:05:43.937Z,20.69
2024-04-30T23:08:13.948Z,20.69
2024-04-30T23:10:43.922Z,20.70
2024-04-30T23:13:13.877Z,20.66
2024-04-30T23:15:43.989Z,20.66
2024-04-30T23:18:14.210Z,20.72
2024-04-30T23:20:44.287Z,20.65
2024-04-30T23:23:14.186Z,20.68
2024-04-30T23:25:44.062Z,20.68
2024-04-30T23:28:14.064Z,20.61
2024-04-30T23:30:44.121Z,20.52
2024-04-30T23:33:14.201Z,20.54
2024-04-30T23:35:44.138Z,20.69
2024-04-30T23:38:14.115Z,20.73
2024-04-30T23:40:44.185Z,20.47
2024-04-30T23:43:14.224Z,20.68
2024-04-30T23:45:44.381Z,20.66
2024-04-30T23:48:14.513Z,20.73
2024-04-30T23:50:45.011Z,20.64
2024-04-30T23:53:14.941Z,20.81
2024-04-30T23:55:44.919Z,20.64
2024-04-30T23:58:15.022Z,20.73
